Time;durP1;ratioP1;P1;durP2;ratioP2;P2;SDS_P1;SDS_P2;PMS_P1;PMS_P2;Temp;Humidity;BMP_temperature;BMP_pressure;BME280_temperature;BME280_humidity;BME280_pressure;Samples;Min_cycle;Max_cycle;Signal;HPM_P1;HPM_P2
2023/01/24 00:01:26;;;;;;;3.83;3.63;;;;;;;1.73;100.00;103200.63;6055945;23;20013;-74
2023/01/24 00:03:52;;;;;;;3.55;3.35;;;;;;;1.72;100.00;103208.34;6057987;23;20021;-74
2023/01/24 00:06:19;;;;;;;3.42;3.22;;;;;;;1.72;100.00;103203.16;6060358;23;20126;-76
2023/01/24 00:08:45;;;;;;;5.00;4.20;;;;;;;0.77;100.00;103051.59;6053663;23;20248;-77
2023/01/24 00:11:13;;;;;;;3.65;3.45;;;;;;;1.18;100.00;103117.31;6061356;23;20030;-76
2023/01/24 00:13:39;;;;;;;3.85;3.55;;;;;;;1.33;100.00;103142.69;6033154;23;20030;-77
2023/01/24 00:16:09;;;;;;;4.25;3.95;;;;;;;1.51;100.00;103170.72;6039709;23;20347;-76
2023/01/24 00:18:36;;;;;;;3.75;3.45;;;;;;;1.73;100.00;103210.97;6062358;23;20272;-75
2023/01/24 00:21:12;;;;;;;4.13;3.72;;;;;;;1.37;100.00;103143.63;6034370;23;20034;-75
2023/01/24 00:23:43;;;;;;;3.55;3.33;;;;;;;1.74;100.00;103199.75;6007543;23;21144;-76
2023/01/24 00:26:11;;;;;;;4.57;4.15;;;;;;;0.18;100.00;102948.38;6053587;23;20177;-75
2023/01/24 00:28:37;;;;;;;3.33;3.22;;;;;;;1.73;100.00;103210.09;6055665;23;20098;-75
2023/01/24 00:31:05;;;;;;;9.50;4.75;;;;;;;1.74;100.00;103217.88;6032911;23;20046;-77
2023/01/24 00:33:33;;;;;;;5.28;4.75;;;;;;;1.67;100.00;103220.31;6003151;23;20368;-77
2023/01/24 00:36:00;;;;;;;3.72;3.50;;;;;;;0.57;100.00;103020.03;6032085;23;20490;-75
2023/01/24 00:38:28;;;;;;;5.57;5.10;;;;;;;1.32;100.00;103171.09;6034215;23;20585;-78
2023/01/24 00:40:55;;;;;;;4.07;3.78;;;;;;;1.03;100.00;103113.44;6050259;23;20037;-76
2023/01/24 00:43:21;;;;;;;4.47;4.07;;;;;;;1.48;100.00;103183.59;6056948;23;20106;-76
2023/01/24 00:45:48;;;;;;;4.40;4.10;;;;;;;1.72;100.00;103213.53;6057965;23;20048;-76
2023/01/24 00:48:15;;;;;;;6.80;4.28;;;;;;;1.69;100.00;103208.28;6054396;23;20371;-75
2023/01/24 00:50:41;;;;;;;4.80;4.50;;;;;;;0.93;100.00;103096.81;6048520;23;20184;-77
2023/01/24 00:53:08;;;;;;;4.68;4.32;;;;;;;1.48;100.00;103177.53;6030240;23;20138;-77
2023/01/24 00:55:39;;;;;;;4.75;4.35;;;;;;;1.66;100.00;103211.66;6033272;23;20022;-76
2023/01/24 00:58:06;;;;;;;5.23;3.93;;;;;;;1.11;100.00;103124.88;6057146;23;20042;-75
2023/01/24 01:00:34;;;;;;;4.47;4.18;;;;;;;1.68;100.00;103224.63;6029975;23;20038;-77
2023/01/24 01:03:00;;;;;;;5.53;5.15;;;;;;;1.48;100.00;103183.59;6034382;23;20038;-76
2023/01/24 01:05:27;;;;;;;4.28;4.07;;;;;;;1.32;100.00;103155.56;6028657;23;20078;-78
2023/01/24 01:07:54;;;;;;;5.25;4.82;;;;;;;0.83;100.00;103089.66;6050845;23;20448;-74
2023/01/24 01:10:20;;;;;;;10.05;4.45;;;;;;;-0.16;100.00;102911.34;6053088;23;20034;-77
2023/01/24 01:12:46;;;;;;;5.43;4.82;;;;;;;1.62;100.00;103203.78;6054618;23;20029;-76
2023/01/24 01:15:13;;;;;;;5.28;4.28;;;;;;;0.55;100.00;103019.13;6026210;23;20088;-75
2023/01/24 01:17:39;;;;;;;4.53;4.22;;;;;;;1.65;100.00;103207.31;6057078;23;20032;-77
2023/01/24 01:20:07;;;;;;;4.25;4.00;;;;;;;1.21;100.00;103157.03;6034503;23;20603;-78
2023/01/24 01:22:33;;;;;;;4.95;4.63;;;;;;;1.66;100.00;103213.38;6034489;23;20109;-75
2023/01/24 01:25:11;;;;;;;5.05;4.65;;;;;;;-0.67;100.00;102853.13;6062704;23;20030;-75
2023/01/24 01:27:37;;;;;;;4.35;4.05;;;;;;;1.69;100.00;103218.63;6060958;23;20050;-75
2023/01/24 01:30:05;;;;;;;3.75;3.53;;;;;;;0.84;100.00;103068.13;6056227;23;20637;-75
2023/01/24 01:32:31;;;;;;;3.65;3.45;;;;;;;0.76;100.00;103065.31;6056880;23;20038;-76
2023/01/24 01:34:58;;;;;;;4.35;4.05;;;;;;;1.41;100.00;103168.75;6061259;23;20539;-75
2023/01/24 01:37:25;;;;;;;4.85;4.30;;;;;;;1.65;100.00;103216.81;6057767;23;20026;-76
2023/01/24 01:39:51;;;;;;;4.72;4.28;;;;;;;1.64;100.00;103241.78;6038892;23;20113;-75
2023/01/24 01:42:18;;;;;;;6.05;5.55;;;;;;;1.01;100.00;103131.50;6053435;23;20623;-75
2023/01/24 01:44:49;;;;;;;5.47;4.60;;;;;;;1.57;100.00;103222.66;6054721;23;20643;-76
2023/01/24 01:47:22;;;;;;;5.00;4.38;;;;;;;1.56;100.00;103227.78;6056400;23;20364;-76
2023/01/24 01:49:59;;;;;;;5.70;5.30;;;;;;;1.57;100.00;103225.25;6050280;23;20033;-76
2023/01/24 01:52:28;;;;;;;6.43;5.30;;;;;;;0.64;100.00;103088.25;6050048;23;20011;-77
2023/01/24 01:54:59;;;;;;;4.35;3.90;;;;;;;1.59;100.00;103227.88;6056561;23;20540;-75
2023/01/24 01:57:31;;;;;;;5.30;4.88;;;;;;;1.30;100.00;103183.09;6031794;23;20453;-77
2023/01/24 02:00:09;;;;;;;3.45;3.33;;;;;;;1.26;100.00;103173.53;6047655;23;20024;-74
2023/01/24 02:02:38;;;;;;;4.07;3.78;;;;;;;1.23;100.00;103163.09;6037397;23;20109;-76
2023/01/24 02:05:07;;;;;;;4.25;4.03;;;;;;;1.23;100.00;103161.38;6031290;23;20627;-77
2023/01/24 02:07:57;;;;;;;4.43;4.07;;;;;;;1.65;100.00;103227.16;6053188;23;20712;-77
2023/01/24 02:11:37;;;;;;;3.67;3.47;;;;;;;1.63;100.00;103228.84;6039421;23;20544;-77
2023/01/24 02:13:14;;;;;;;3.88;3.60;;;;;;;0.77;100.00;103074.84;6054102;23;20034;-77
2023/01/24 02:18:30;;;;;;;4.75;4.25;;;;;;;1.63;100.00;103226.25;6054114;23;20022;-74
2023/01/24 02:20:57;;;;;;;3.25;3.00;;;;;;;1.64;100.00;103235.75;6032134;23;20028;-76
2023/01/24 02:23:47;;;;;;;3.63;3.42;;;;;;;1.32;100.00;103184.03;6057992;23;20101;-75
2023/01/24 02:26:21;;;;;;;8.13;3.25;;;;;;;0.81;100.00;103092.19;6058316;23;20122;-74
2023/01/24 02:29:11;;;;;;;4.88;3.97;;;;;;;0.83;100.00;103123.25;6051606;23;20050;-74
2023/01/24 02:31:56;;;;;;;3.47;3.28;;;;;;;1.35;100.00;103194.47;6056991;23;20076;-76
2023/01/24 02:34:24;;;;;;;4.32;3.22;;;;;;;1.26;100.00;103196.81;6047416;23;20014;-76
2023/01/24 02:36:58;;;;;;;9.38;3.80;;;;;;;1.32;100.00;103191.78;6055215;23;20088;-78
2023/01/24 02:40:18;;;;;;;3.58;3.38;;;;;;;1.59;100.00;103298.63;6010586;23;20025;-77
2023/01/24 02:42:46;;;;;;;2.72;2.63;;;;;;;0.58;100.00;103061.44;5947536;23;20027;-75
2023/01/24 02:45:23;;;;;;;3.42;3.15;;;;;;;1.61;100.00;103227.91;6017803;23;20087;-75
2023/01/24 02:47:52;;;;;;;3.38;3.20;;;;;;;1.58;100.00;103220.94;6050946;23;20468;-76
2023/01/24 02:50:21;;;;;;;4.18;3.60;;;;;;;1.58;100.00;103220.94;6057918;23;20026;-77
2023/01/24 02:55:33;;;;;;;3.35;3.15;;;;;;;0.89;100.00;103103.59;6052797;23;20088;-76
2023/01/24 02:58:06;;;;;;;3.58;3.42;;;;;;;1.43;100.00;103189.50;6060133;23;20030;-75
2023/01/24 03:00:35;;;;;;;3.75;3.55;;;;;;;0.77;100.00;103104.16;6061159;23;20081;-75
2023/01/24 03:03:02;;;;;;;3.35;3.15;;;;;;;1.55;100.00;103231.22;6036547;23;20030;-74
2023/01/24 03:05:39;;;;;;;3.03;2.92;;;;;;;1.55;100.00;103234.69;6060868;23;20020;-75
2023/01/24 03:08:07;;;;;;;3.13;3.00;;;;;;;0.97;100.00;103115.03;6056768;23;20046;-75
2023/01/24 03:10:34;;;;;;;3.47;3.28;;;;;;;1.53;100.00;103227.72;6061981;23;20056;-75
2023/01/24 03:35:00;;;;;;;3.92;3.72;;;;;;;1.45;100.00;103211.97;6058070;23;20087;-75
2023/01/24 03:40:14;;;;;;;3.33;3.13;;;;;;;1.18;100.00;103169.03;6058131;23;20480;-76
2023/01/24 03:42:50;;;;;;;3.00;2.90;;;;;;;1.41;100.00;103201.53;6057204;23;20033;-74
2023/01/24 03:45:23;;;;;;;3.42;3.17;;;;;;;0.83;100.00;103105.16;6050184;23;20022;-74
2023/01/24 03:47:56;;;;;;;4.30;3.72;;;;;;;1.17;100.00;103167.28;6060076;23;20022;-76
2023/01/24 03:53:09;;;;;;;3.63;3.40;;;;;;;1.38;100.00;103212.66;6062513;23;20452;-75
2023/01/24 03:55:37;;;;;;;3.75;3.45;;;;;;;1.37;100.00;103208.31;6034000;23;20152;-74
2023/01/24 03:58:04;;;;;;;4.20;3.90;;;;;;;1.36;100.00;103215.22;6032600;23;20048;-77
2023/01/24 04:00:30;;;;;;;3.70;3.40;;;;;;;0.69;100.00;103105.66;6054215;23;20077;-78
2023/01/24 04:02:57;;;;;;;6.03;3.60;;;;;;;0.06;100.00;102995.41;6058876;23;20034;-75
2023/01/24 04:05:24;;;;;;;3.78;3.58;;;;;;;1.09;100.00;103166.19;6058255;23;20078;-75
2023/01/24 04:07:52;;;;;;;3.42;3.25;;;;;;;1.36;100.00;103203.97;6052313;23;20041;-75
2023/01/24 04:10:18;;;;;;;3.97;3.67;;;;;;;1.32;100.00;103217.66;6051652;23;20073;-77
2023/01/24 04:12:44;;;;;;;4.43;4.00;;;;;;;0.92;100.00;103154.50;6033109;23;20516;-75
2023/01/24 04:15:16;;;;;;;4.05;3.05;;;;;;;1.30;100.00;103198.63;6058971;23;20038;-76
2023/01/24 04:17:43;;;;;;;3.80;3.55;;;;;;;1.31;100.00;103234.03;6058099;23;20067;-77
2023/01/24 04:20:10;;;;;;;5.18;4.82;;;;;;;1.15;100.00;103192.22;6028812;23;20077;-74
2023/01/24 04:22:37;;;;;;;3.22;3.03;;;;;;;0.08;100.00;102992.84;6056631;23;20674;-76
2023/01/24 04:25:04;;;;;;;3.45;3.25;;;;;;;1.03;100.00;103137.59;6035681;23;20015;-75
2023/01/24 04:27:30;;;;;;;3.85;3.65;;;;;;;0.96;100.00;103135.66;6061160;23;20018;-76
2023/01/24 04:29:56;;;;;;;3.67;3.47;;;;;;;1.06;100.00;103153.16;6054299;23;20013;-74
2023/01/24 04:32:23;;;;;;;3.78;3.47;;;;;;;0.85;100.00;103117.28;6056301;23;20042;-74
2023/01/24 04:34:49;;;;;;;3.75;3.55;;;;;;;1.19;100.00;103175.94;6058561;23;20034;-75
2023/01/24 04:37:16;;;;;;;3.95;3.65;;;;;;;1.32;100.00;103202.13;6058590;23;20022;-76
2023/01/24 04:39:42;;;;;;;4.55;4.15;;;;;;;1.01;100.00;103139.25;6027934;23;20039;-76
2023/01/24 04:42:09;;;;;;;4.20;3.50;;;;;;;0.33;100.00;103026.28;6059827;23;20054;-75
2023/01/24 04:44:35;;;;;;;4.15;3.92;;;;;;;0.43;100.00;103052.38;6059230;23;20050;-75
2023/01/24 04:47:02;;;;;;;4.57;3.75;;;;;;;1.32;100.00;103194.38;6060391;23;20570;-76
2023/01/24 04:49:28;;;;;;;4.40;3.60;;;;;;;-0.48;100.00;102908.72;6029758;23;20582;-76
2023/01/24 04:51:55;;;;;;;4.30;4.00;;;;;;;1.13;100.00;103167.16;6029735;23;20596;-75
2023/01/24 04:54:21;;;;;;;4.15;3.88;;;;;;;1.32;100.00;103202.13;6051738;23;20022;-77
2023/01/24 04:56:47;;;;;;;3.40;3.22;;;;;;;0.43;100.00;103045.50;6056802;23;20089;-75
2023/01/24 04:59:14;;;;;;;4.78;4.35;;;;;;;1.14;100.00;103162.03;6058538;23;20021;-74
2023/01/24 05:01:40;;;;;;;4.93;4.28;;;;;;;1.33;100.00;103198.72;6054303;23;20030;-74
2023/01/24 05:04:09;;;;;;;5.38;3.85;;;;;;;1.32;100.00;103195.28;6034133;23;20528;-77
2023/01/24 05:06:35;;;;;;;3.95;3.65;;;;;;;0.65;100.00;103084.84;6060489;23;20050;-76
2023/01/24 05:09:02;;;;;;;3.58;3.33;;;;;;;0.76;100.00;103117.91;6056557;23;20050;-76
2023/01/24 05:11:29;;;;;;;6.55;3.28;;;;;;;1.31;100.00;103200.41;6035746;23;20010;-76
2023/01/24 05:13:56;;;;;;;4.35;3.70;;;;;;;0.52;100.00;103068.13;6053711;23;20041;-76
2023/01/24 05:16:22;;;;;;;4.43;4.13;;;;;;;1.26;100.00;103201.97;6009809;23;21951;-75
2023/01/24 05:18:49;;;;;;;6.72;3.55;;;;;;;0.89;100.00;103154.44;6034468;23;20026;-74
2023/01/24 05:21:17;;;;;;;3.75;3.55;;;;;;;1.01;100.00;103148.72;6030499;23;20002;-75
2023/01/24 05:23:48;;;;;;;3.67;3.50;;;;;;;0.82;100.00;103113.72;6054292;23;20414;-76
2023/01/24 05:26:14;;;;;;;4.63;4.03;;;;;;;0.78;100.00;103116.25;6056712;23;20524;-76
2023/01/24 05:28:40;;;;;;;3.45;3.22;;;;;;;0.39;100.00;103065.19;6033184;23;20022;-75
2023/01/24 05:31:08;;;;;;;11.98;4.70;;;;;;;0.84;100.00;103127.56;6028728;23;20036;-77
2023/01/24 05:33:36;;;;;;;4.63;4.30;;;;;;;1.26;100.00;103209.72;6033680;23;20072;-75
2023/01/24 05:36:06;;;;;;;3.78;3.55;;;;;;;0.44;100.00;103061.88;6046184;23;20029;-78
2023/01/24 05:38:33;;;;;;;3.38;3.20;;;;;;;1.09;100.00;103179.13;6033432;23;20015;-75
2023/01/24 05:41:03;;;;;;;4.53;4.13;;;;;;;0.38;100.00;103097.03;6054970;23;20100;-74
2023/01/24 05:43:31;;;;;;;3.97;3.70;;;;;;;1.27;100.00;103219.25;6033067;23;20085;-74
2023/01/24 05:46:03;;;;;;;5.15;3.90;;;;;;;0.64;100.00;103117.56;6050129;23;20431;-75
2023/01/24 05:48:30;;;;;;;3.05;2.95;;;;;;;0.71;100.00;103123.78;6033422;23;20010;-75
2023/01/24 05:50:58;;;;;;;4.57;4.10;;;;;;;1.27;100.00;103224.44;6060030;23;20089;-74
2023/01/24 05:53:27;;;;;;;4.20;3.67;;;;;;;1.01;100.00;103187.50;6056826;23;20030;-76
2023/01/24 05:55:59;;;;;;;3.85;3.65;;;;;;;1.20;100.00;103220.78;6056095;23;20608;-75
2023/01/24 05:58:32;;;;;;;3.33;3.13;;;;;;;1.20;100.00;103213.03;6034208;23;20120;-75
2023/01/24 06:00:59;;;;;;;4.28;4.00;;;;;;;1.17;100.00;103225.88;6053055;23;20011;-73
2023/01/24 06:03:25;;;;;;;3.25;3.05;;;;;;;1.14;100.00;103218.03;6046784;23;20034;-73
2023/01/24 06:05:54;;;;;;;4.05;3.83;;;;;;;1.12;100.00;103225.78;6055998;23;20022;-77
2023/01/24 06:08:21;;;;;;;5.22;3.53;;;;;;;0.88;100.00;103182.00;6029308;23;20043;-75
2023/01/24 06:10:48;;;;;;;3.83;3.63;;;;;;;0.83;100.00;103187.88;6031883;23;20532;-77
2023/01/24 06:13:14;;;;;;;3.25;3.10;;;;;;;0.89;100.00;103182.88;6056285;23;20041;-74
2023/01/24 06:15:43;;;;;;;3.10;2.90;;;;;;;0.08;100.00;103049.66;6052672;23;20018;-73
2023/01/24 06:18:14;;;;;;;3.60;3.40;;;;;;;0.31;100.00;103118.34;6059300;23;20071;-75
2023/01/24 06:20:40;;;;;;;4.55;4.15;;;;;;;0.84;100.00;103218.03;6030050;23;20041;-77
2023/01/24 06:23:17;;;;;;;4.45;4.15;;;;;;;1.08;100.00;103231.66;6058300;23;20026;-77
2023/01/24 06:25:44;;;;;;;3.13;3.03;;;;;;;0.61;100.00;103157.97;6055244;23;20029;-74
2023/01/24 06:28:11;;;;;;;3.50;3.30;;;;;;;0.96;100.00;103224.47;6058070;23;20037;-75
2023/01/24 06:30:41;;;;;;;3.10;2.90;;;;;;;0.70;100.00;103184.94;6051263;23;20614;-75
2023/01/24 06:33:23;;;;;;;4.43;4.10;;;;;;;1.09;100.00;103243.78;6052549;23;20430;-75
2023/01/24 06:35:53;;;;;;;4.53;4.13;;;;;;;1.09;100.00;103241.19;6058414;23;20029;-75
2023/01/24 06:38:22;;;;;;;3.35;3.15;;;;;;;0.68;100.00;103170.19;6035411;23;20022;-75
2023/01/24 06:40:55;;;;;;;4.13;3.83;;;;;;;1.05;100.00;103238.47;6054177;23;20029;-76
2023/01/24 06:43:22;;;;;;;;;;;;;;;1.07;100.00;103244.56;6045128;23;20081;-75
2023/01/24 06:45:49;;;;;;;3.83;3.58;;;;;;;0.85;100.00;103212.06;6052038;23;19910;-75
2023/01/24 06:48:15;;;;;;;4.18;3.88;;;;;;;1.07;100.00;103247.16;6053895;23;20039;-78
2023/01/24 06:50:42;;;;;;;3.92;3.63;;;;;;;1.07;100.00;103248.03;6052099;23;20041;-76
2023/01/24 06:53:09;;;;;;;3.70;3.45;;;;;;;0.63;100.00;103182.13;6054353;23;20019;-76
2023/01/24 06:55:35;;;;;;;3.40;3.20;;;;;;;1.04;100.00;103245.34;6055400;23;20096;-76
2023/01/24 06:58:03;;;;;;;3.20;3.10;;;;;;;-0.18;100.00;103047.19;6059971;23;20557;-76
2023/01/24 07:00:30;;;;;;;5.45;5.13;;;;;;;0.85;100.00;103233.59;6056940;23;20039;-75
2023/01/24 07:02:58;;;;;;;4.05;3.75;;;;;;;1.13;100.00;103268.03;6055778;23;20107;-77
2023/01/24 07:05:28;;;;;;;3.42;3.22;;;;;;;0.73;100.00;103199.66;6055130;23;20080;-74
2023/01/24 07:07:55;;;;;;;4.47;4.10;;;;;;;1.07;100.00;103292.00;6048333;23;20022;-74
2023/01/24 07:10:22;;;;;;;4.38;4.07;;;;;;;0.73;100.00;103213.44;6049121;23;20110;-76
2023/01/24 07:12:48;;;;;;;4.20;3.90;;;;;;;0.59;100.00;103189.78;6054939;23;20103;-77
2023/01/24 07:15:15;;;;;;;4.38;4.00;;;;;;;0.65;100.00;103212.34;6064602;23;20017;-79
2023/01/24 07:17:42;;;;;;;3.83;3.53;;;;;;;0.49;100.00;103179.16;6044767;23;20030;-75
2023/01/24 07:20:10;;;;;;;5.18;4.53;;;;;;;1.01;100.00;103271.13;6049671;23;20625;-75
2023/01/24 07:22:37;;;;;;;3.58;3.28;;;;;;;1.11;100.00;103300.72;6054723;23;20481;-74
2023/01/24 07:25:09;;;;;;;4.45;4.05;;;;;;;0.89;100.00;103263.88;6054293;23;20042;-76
2023/01/24 07:27:36;;;;;;;3.03;2.90;;;;;;;-0.22;100.00;103063.38;6055723;23;20014;-75
2023/01/24 07:30:04;;;;;;;3.45;3.28;;;;;;;0.66;100.00;103214.13;6053814;23;20025;-74
2023/01/24 07:32:30;;;;;;;3.40;3.30;;;;;;;0.56;100.00;103196.56;6047228;23;20018;-73
2023/01/24 07:34:57;;;;;;;3.70;3.50;;;;;;;1.10;100.00;103291.19;6051143;23;20055;-75
2023/01/24 07:37:23;;;;;;;4.10;3.75;;;;;;;1.22;100.00;103311.38;6026760;23;20026;-75
2023/01/24 07:39:49;;;;;;;3.70;3.42;;;;;;;1.24;100.00;103336.44;6057200;23;20022;-74
2023/01/24 07:42:18;;;;;;;3.88;3.58;;;;;;;0.84;100.00;103246.47;6046231;23;20023;-75
2023/01/24 07:44:45;;;;;;;3.47;3.28;;;;;;;1.18;100.00;103312.97;6032731;23;20007;-73
2023/01/24 07:47:11;;;;;;;3.97;3.70;;;;;;;-0.14;100.00;103092.91;6028922;23;20034;-75
2023/01/24 07:49:38;;;;;;;3.50;3.30;;;;;;;0.59;100.00;103222.50;6052147;23;20022;-75
2023/01/24 07:52:04;;;;;;;3.70;3.50;;;;;;;1.14;100.00;103312.03;6054285;23;20018;-76
2023/01/24 07:54:30;;;;;;;4.03;3.58;;;;;;;0.29;100.00;103184.56;6037268;23;20040;-75
2023/01/24 07:56:57;;;;;;;3.10;3.00;;;;;;;0.26;100.00;103144.88;6061395;23;20277;-75
2023/01/24 07:59:23;;;;;;;4.07;3.78;;;;;;;0.87;100.00;103282.78;6058134;23;20508;-75
2023/01/24 08:02:03;;;;;;;3.83;3.63;;;;;;;0.81;100.00;103257.63;6058128;23;20038;-74
2023/01/24 08:04:30;;;;;;;4.68;4.28;;;;;;;1.31;100.00;103340.09;6060163;23;20029;-75
2023/01/24 08:09:41;;;;;;;3.72;3.42;;;;;;;1.31;100.00;103340.09;6054855;23;20026;-74
2023/01/24 08:12:08;;;;;;;3.83;3.58;;;;;;;0.67;100.00;103235.66;6005602;23;20085;-75
2023/01/24 08:14:34;;;;;;;3.67;3.47;;;;;;;1.09;100.00;103308.44;6054911;23;20022;-74
2023/01/24 08:17:01;;;;;;;3.50;3.35;;;;;;;1.35;100.00;103349.69;6033770;23;20014;-73
2023/01/24 08:19:27;;;;;;;4.65;4.35;;;;;;;0.83;100.00;103255.09;6055737;23;20030;-75
2023/01/24 08:22:13;;;;;;;3.58;3.38;;;;;;;1.08;100.00;103285.09;6054646;23;20139;-73
2023/01/24 08:24:40;;;;;;;3.47;3.28;;;;;;;1.37;100.00;103364.44;6056727;23;20087;-74
2023/01/24 08:27:06;;;;;;;3.60;3.40;;;;;;;1.39;100.00;103365.34;6057019;23;20101;-74
2023/01/24 08:29:33;;;;;;;4.30;4.00;;;;;;;1.19;100.00;103322.50;6059023;23;20547;-76
2023/01/24 08:31:59;;;;;;;5.32;3.88;;;;;;;1.36;100.00;103354.03;6056656;23;20068;-75
2023/01/24 08:34:28;;;;;;;3.88;3.67;;;;;;;0.87;100.00;103265.56;6057615;23;20019;-75
2023/01/24 08:36:57;;;;;;;6.20;3.50;;;;;;;1.23;100.00;103334.69;6036518;23;20102;-75
2023/01/24 08:39:25;;;;;;;4.38;4.07;;;;;;;1.45;100.00;103358.59;6053979;23;20451;-75
2023/01/24 08:41:54;;;;;;;3.80;3.60;;;;;;;1.04;100.00;103314.28;6030698;23;20030;-75
2023/01/24 08:44:30;;;;;;;4.05;3.80;;;;;;;1.28;100.00;103329.66;6031684;23;20237;-72
2023/01/24 08:46:59;;;;;;;3.25;3.15;;;;;;;1.46;100.00;103370.69;6059700;23;20113;-74
2023/01/24 08:49:26;;;;;;;4.13;3.83;;;;;;;0.82;100.00;103272.28;6055116;23;20007;-73
2023/01/24 08:51:58;;;;;;;3.28;3.08;;;;;;;1.05;100.00;103300.53;6033285;23;20045;-73
2023/01/24 08:54:32;;;;;;;3.45;3.30;;;;;;;1.49;100.00;103396.69;6026285;23;20027;-75
2023/01/24 08:57:06;;;;;;;4.00;3.80;;;;;;;1.49;99.79;103373.38;6031562;23;20040;-75
2023/01/24 08:59:33;;;;;;;3.28;3.08;;;;;;;1.34;99.45;103341.06;6059289;23;20028;-76
2023/01/24 09:02:01;;;;;;;6.07;3.83;;;;;;;1.27;100.00;103327.91;6062753;23;20034;-75
2023/01/24 09:04:30;;;;;;;3.70;3.50;;;;;;;1.27;100.00;103314.97;6055570;23;20022;-74
2023/01/24 09:06:57;;;;;;;4.57;4.28;;;;;;;0.95;99.09;103278.72;6028056;23;20597;-74
2023/01/24 09:09:24;;;;;;;4.82;4.30;;;;;;;1.36;99.56;103348.84;6041930;23;20019;-74
2023/01/24 09:11:52;;;;;;;5.10;3.75;;;;;;;1.04;99.43;103291.88;6059529;23;20439;-74
2023/01/24 09:14:18;;;;;;;4.18;3.85;;;;;;;1.00;98.86;103284.88;6054565;23;20100;-74
2023/01/24 09:16:45;;;;;;;3.60;3.40;;;;;;;1.07;98.35;103293.72;6037048;23;20100;-74
2023/01/24 09:19:12;;;;;;;3.80;3.58;;;;;;;1.45;98.04;103367.25;6054290;23;20029;-76
2023/01/24 09:21:41;;;;;;;4.57;4.15;;;;;;;1.49;98.74;103375.97;6051606;23;20065;-75
2023/01/24 09:24:07;;;;;;;4.85;4.45;;;;;;;1.08;99.67;103309.25;6030952;23;20488;-74
2023/01/24 09:26:34;;;;;;;3.70;3.45;;;;;;;1.56;99.10;103383.97;6056294;23;20038;-74
2023/01/24 09:29:00;;;;;;;3.42;3.28;;;;;;;1.64;99.13;103381.56;6051621;23;20038;-75
2023/01/24 09:31:27;;;;;;;3.22;3.13;;;;;;;0.24;98.54;103142.25;6034385;23;20042;-73
2023/01/24 09:33:53;;;;;;;3.83;3.60;;;;;;;1.24;98.50;103312.28;6029695;23;20423;-75
2023/01/24 09:36:26;;;;;;;3.53;3.33;;;;;;;1.55;98.07;103379.59;6054954;23;20056;-74
2023/01/24 09:38:52;;;;;;;3.25;3.05;;;;;;;1.61;98.17;103380.63;6055442;23;20037;-74
2023/01/24 09:41:47;;;;;;;3.50;3.28;;;;;;;1.13;98.17;103310.28;6055037;23;20101;-73
2023/01/24 09:44:24;;;;;;;3.55;3.35;;;;;;;1.59;98.65;103396.97;6029668;23;20457;-75
2023/01/24 09:46:53;;;;;;;3.80;3.60;;;;;;;1.64;99.25;103389.31;6050362;23;20034;-74
2023/01/24 09:49:45;;;;;;;4.70;4.43;;;;;;;1.08;98.66;103291.13;6050468;23;20026;-74
2023/01/24 09:52:36;;;;;;;4.35;4.15;;;;;;;1.71;98.28;103393.84;6052318;23;20026;-73
2023/01/24 09:55:12;;;;;;;3.58;3.38;;;;;;;1.46;99.41;103361.22;6036310;23;20018;-73
2023/01/24 09:58:03;;;;;;;4.20;3.90;;;;;;;0.95;99.20;103299.38;6058163;23;20100;-74
2023/01/24 10:00:39;;;;;;;4.65;4.35;;;;;;;1.03;99.60;103331.53;6052691;23;20031;-73
2023/01/24 10:03:19;;;;;;;4.20;3.90;;;;;;;1.27;100.00;103367.56;6053444;23;20022;-73
2023/01/24 10:05:48;;;;;;;3.65;3.45;;;;;;;1.33;100.00;103385.00;6024166;23;20050;-75
2023/01/24 10:08:37;;;;;;;5.07;4.63;;;;;;;0.89;100.00;103299.22;6029193;23;20101;-75
2023/01/24 10:11:25;;;;;;;3.63;3.42;;;;;;;1.27;100.00;103367.56;6029201;23;20033;-74
2023/01/24 10:14:26;;;;;;;4.63;4.28;;;;;;;1.46;100.00;103378.47;6057295;23;20485;-73
2023/01/24 10:17:23;;;;;;;2.80;2.70;;;;;;;0.88;100.00;103272.50;6057340;23;20044;-73
2023/01/24 10:20:24;;;;;;;3.60;3.40;;;;;;;1.75;100.00;103405.19;6055728;23;20034;-75
2023/01/24 10:23:10;;;;;;;2.78;2.67;;;;;;;1.76;98.94;103422.47;6054736;23;20706;-74
2023/01/24 10:25:50;;;;;;;3.33;3.13;;;;;;;1.77;99.47;103408.69;6052490;23;20022;-75
2023/01/24 10:28:33;;;;;;;5.10;3.58;;;;;;;1.72;98.77;103392.13;6031167;23;20019;-74
2023/01/24 10:31:06;;;;;;;4.60;4.30;;;;;;;1.87;98.31;103402.06;6028289;23;20093;-73
2023/01/24 10:33:57;;;;;;;3.90;3.70;;;;;;;1.80;97.95;103393.22;6052534;23;20014;-72
2023/01/24 10:36:37;;;;;;;3.22;3.13;;;;;;;1.46;97.69;103319.81;6050405;23;20167;-74
2023/01/24 10:39:04;;;;;;;4.10;3.70;;;;;;;0.71;96.73;103209.94;6032291;23;20022;-74
2023/01/24 10:41:31;;;;;;;3.85;3.55;;;;;;;1.87;96.94;103400.34;6050187;23;20042;-73
2023/01/24 10:44:23;;;;;;;3.50;3.30;;;;;;;1.92;96.57;103392.69;6057800;23;20109;-73
2023/01/24 10:47:18;;;;;;;4.43;3.33;;;;;;;2.06;96.90;103395.66;6052850;23;20030;-74
2023/01/24 10:49:56;;;;;;;4.43;4.03;;;;;;;1.85;95.78;103378.72;6055951;23;20620;-73
2023/01/24 10:52:23;;;;;;;4.13;3.83;;;;;;;1.76;95.41;103370.69;6030070;23;20074;-74
2023/01/24 10:54:55;;;;;;;3.65;3.40;;;;;;;1.86;95.87;103382.16;6056736;23;20033;-75
2023/01/24 10:57:27;;;;;;;4.10;3.90;;;;;;;1.92;95.20;103383.19;6053243;23;20038;-75
2023/01/24 10:59:55;;;;;;;4.40;4.05;;;;;;;1.95;95.11;103393.66;6032974;23;20014;-74
2023/01/24 11:02:24;;;;;;;4.45;4.25;;;;;;;2.03;94.89;103391.28;6026842;23;20010;-74
2023/01/24 11:05:03;;;;;;;3.00;2.90;;;;;;;1.96;93.98;103374.69;6057486;23;20093;-74
2023/01/24 11:07:40;;;;;;;4.28;3.88;;;;;;;1.52;93.66;103288.06;6033261;23;20026;-73
2023/01/24 11:10:30;;;;;;;5.25;4.90;;;;;;;1.77;93.47;103337.06;6060851;23;20374;-73
2023/01/24 11:12:59;;;;;;;4.88;4.43;;;;;;;1.89;93.64;103367.59;6053557;23;20030;-73
2023/01/24 11:15:30;;;;;;;4.25;3.65;;;;;;;1.59;93.24;103305.50;6028277;23;20080;-73
2023/01/24 11:18:13;;;;;;;4.68;4.40;;;;;;;1.53;93.53;103293.28;6058849;23;20022;-75
2023/01/24 11:20:42;;;;;;;4.35;4.05;;;;;;;2.14;93.96;103373.41;6057872;23;20093;-74
2023/01/24 11:23:17;;;;;;;3.72;3.55;;;;;;;1.57;92.86;103261.47;6062275;23;20049;-74
2023/01/24 11:25:55;;;;;;;4.45;4.25;;;;;;;2.08;92.62;103347.34;6031970;23;20026;-74
2023/01/24 11:28:25;;;;;;;4.07;3.85;;;;;;;2.22;92.16;103353.75;6061602;23;20034;-74
2023/01/24 11:30:54;;;;;;;4.53;4.22;;;;;;;2.25;92.06;103346.06;6059334;23;20014;-73
2023/01/24 11:33:54;;;;;;;4.65;4.35;;;;;;;2.37;92.41;103355.88;6061369;23;20607;-74
2023/01/24 11:36:40;;;;;;;7.90;4.32;;;;;;;1.33;91.52;103189.25;6045516;23;20046;-73
2023/01/24 11:39:24;;;;;;;3.70;3.50;;;;;;;1.22;91.41;103187.22;6056902;23;20034;-73
2023/01/24 11:41:58;;;;;;;4.35;4.05;;;;;;;2.35;91.68;103335.09;6058728;23;20357;-73
2023/01/24 11:44:36;;;;;;;4.50;4.20;;;;;;;2.42;90.82;103338.72;6051972;23;20030;-73
2023/01/24 11:47:17;;;;;;;4.22;4.03;;;;;;;2.45;90.22;103324.97;6059031;23;20652;-73
2023/01/24 11:50:31;;;;;;;4.25;3.95;;;;;;;2.57;90.25;103333.03;6026458;23;20089;-74
2023/01/24 11:53:16;;;;;;;4.38;4.13;;;;;;;2.58;90.37;103327.00;5946182;24;20256;-74
2023/01/24 11:55:45;;;;;;;6.00;5.05;;;;;;;2.65;89.46;103323.72;6006462;23;20053;-74
2023/01/24 11:58:39;;;;;;;3.95;3.75;;;;;;;1.15;88.68;103106.00;6030411;23;20034;-74
2023/01/24 12:01:21;;;;;;;3.88;3.67;;;;;;;2.20;89.62;103269.94;6055628;23;20034;-74
2023/01/24 12:04:06;;;;;;;3.72;3.53;;;;;;;2.07;90.12;103236.84;6032923;23;20414;-73
2023/01/24 12:07:10;;;;;;;5.15;4.75;;;;;;;2.72;90.34;103310.03;6059832;23;20025;-74
2023/01/24 12:09:47;;;;;;;6.32;5.57;;;;;;;2.21;88.85;103248.41;6027288;23;20089;-73
2023/01/24 12:12:20;;;;;;;3.92;3.72;;;;;;;2.54;88.37;103284.56;6061573;23;20046;-73
2023/01/24 12:15:28;;;;;;;3.97;3.72;;;;;;;2.21;89.23;103226.81;6053617;23;20053;-73
2023/01/24 12:18:13;;;;;;;5.00;3.53;;;;;;;2.60;88.42;103287.28;6054107;23;20029;-73
2023/01/24 12:20:57;;;;;;;4.47;4.22;;;;;;;2.62;88.34;103279.56;6054920;23;20022;-74
2023/01/24 12:23:55;;;;;;;5.55;4.43;;;;;;;2.66;87.99;103281.38;6058269;23;20034;-74